createdAt,value
2023-05-25T00:01:01.925Z,2.58
2023-05-25T00:03:30.919Z,1.95
2023-05-25T00:05:57.687Z,4.53
2023-05-25T00:08:25.672Z,4.47
2023-05-25T00:10:55.392Z,2.28
2023-05-25T00:13:22.324Z,3.03
2023-05-25T00:15:56.863Z,2.35
2023-05-25T00:18:24.643Z,2.83
2023-05-25T00:20:57.104Z,4.70
2023-05-25T00:23:23.615Z,5.28
2023-05-25T00:25:52.467Z,6.85
2023-05-25T00:28:18.686Z,0.43
2023-05-25T00:30:45.084Z,4.90
2023-05-25T00:33:11.491Z,0.60
2023-05-25T00:35:39.354Z,2.55
2023-05-25T00:38:05.577Z,1.52
2023-05-25T00:40:32.170Z,2.97
2023-05-25T00:42:59.157Z,1.83
2023-05-25T00:45:25.351Z,0.20
2023-05-25T00:47:52.552Z,0.80
2023-05-25T00:50:28.412Z,0.60
2023-05-25T00:52:54.699Z,1.08
2023-05-25T00:55:21.696Z,1.13
2023-05-25T00:57:51.461Z,1.25
2023-05-25T01:00:21.212Z,1.33
2023-05-25T01:02:48.011Z,1.17
2023-05-25T01:05:18.010Z,1.55
2023-05-25T01:07:44.804Z,0.35
2023-05-25T01:10:11.702Z,0.73
2023-05-25T01:12:42.963Z,0.50
2023-05-25T01:15:10.119Z,0.95
2023-05-25T01:17:39.500Z,0.70
2023-05-25T01:20:13.676Z,3.65
2023-05-25T01:22:43.856Z,2.17
2023-05-25T01:25:28.740Z,4.88
2023-05-25T01:28:34.374Z,3.53
2023-05-25T01:33:34.055Z,4.25
2023-05-25T01:36:00.896Z,2.30
2023-05-25T01:38:27.329Z,7.43
2023-05-25T01:40:55.974Z,3.28
2023-05-25T01:43:25.111Z,7.22
2023-05-25T01:45:55.783Z,8.48
2023-05-25T01:49:02.384Z,6.00
2023-05-25T01:51:53.506Z,1.65
2023-05-25T01:54:20.807Z,7.63
2023-05-25T01:56:48.884Z,3.30
2023-05-25T01:59:16.782Z,0.82
2023-05-25T02:01:44.174Z,2.70
2023-05-25T02:04:11.174Z,4.15
2023-05-25T02:06:43.315Z,1.00
2023-05-25T02:09:09.545Z,0.40
2023-05-25T02:11:35.963Z,2.22
2023-05-25T02:14:05.399Z,3.28
2023-05-25T02:16:34.655Z,6.28
2023-05-25T02:19:04.004Z,8.55
2023-05-25T02:21:30.965Z,8.30
2023-05-25T02:24:03.523Z,0.20
2023-05-25T02:26:41.140Z,0.25
2023-05-25T02:29:11.469Z,0.28
2023-05-25T02:31:37.816Z,0.30
2023-05-25T02:34:17.573Z,0.20
2023-05-25T02:36:51.743Z,0.20
2023-05-25T02:39:18.148Z,0.20
2023-05-25T02:41:47.355Z,0.28
2023-05-25T02:44:13.665Z,0.30
2023-05-25T02:46:40.112Z,0.32
2023-05-25T02:49:06.528Z,0.85
2023-05-25T02:51:36.916Z,0.85
2023-05-25T02:54:03.439Z,0.80
2023-05-25T02:56:29.644Z,1.63
2023-05-25T02:59:02.708Z,1.15
2023-05-25T03:01:30.821Z,1.13
2023-05-25T03:04:00.347Z,2.53
2023-05-25T03:06:31.284Z,1.98
2023-05-25T03:08:57.770Z,2.92
2023-05-25T03:11:24.232Z,4.30
2023-05-25T03:13:56.912Z,2.65
2023-05-25T03:16:23.532Z,2.30
2023-05-25T03:18:50.091Z,2.25
2023-05-25T03:21:19.100Z,4.20
2023-05-25T03:23:45.847Z,1.98
2023-05-25T03:26:12.338Z,9.20
2023-05-25T03:28:39.869Z,4.13
2023-05-25T03:31:06.561Z,3.05
2023-05-25T03:33:33.596Z,5.82
2023-05-25T03:36:00.004Z,4.28
2023-05-25T03:38:26.411Z,4.82
2023-05-25T03:40:52.852Z,2.70
2023-05-25T03:43:20.044Z,5.78
2023-05-25T03:45:46.621Z,3.03
2023-05-25T03:48:13.093Z,1.50
2023-05-25T03:50:40.651Z,3.45
2023-05-25T03:53:07.139Z,2.35
2023-05-25T03:55:36.568Z,3.78
2023-05-25T03:58:04.583Z,3.40
2023-05-25T04:00:33.529Z,4.18
2023-05-25T04:02:59.778Z,1.73
2023-05-25T04:05:31.854Z,5.13
2023-05-25T04:07:58.824Z,7.07
2023-05-25T04:10:25.260Z,13.70
2023-05-25T04:12:51.923Z,15.80
2023-05-25T04:15:18.625Z,12.95
2023-05-25T04:17:45.181Z,15.05
2023-05-25T04:20:17.681Z,10.63
2023-05-25T04:22:44.720Z,5.32
2023-05-25T04:25:11.105Z,11.00
2023-05-25T04:27:40.430Z,15.75
2023-05-25T04:30:11.042Z,15.27
2023-05-25T04:32:45.181Z,12.98
2023-05-25T04:35:14.454Z,13.23
2023-05-25T04:37:41.602Z,12.98
2023-05-25T04:40:13.805Z,15.90
2023-05-25T04:42:44.699Z,15.10
2023-05-25T04:45:11.986Z,12.25
2023-05-25T04:47:42.668Z,12.90
2023-05-25T04:50:12.142Z,16.38
2023-05-25T04:52:38.478Z,17.73
2023-05-25T04:55:04.996Z,13.15
2023-05-25T04:57:37.049Z,13.73
2023-05-25T05:00:05.998Z,13.20
2023-05-25T05:02:32.536Z,13.48
2023-05-25T05:04:58.802Z,19.20
2023-05-25T05:07:28.203Z,15.13
2023-05-25T05:09:55.402Z,19.83
2023-05-25T05:12:21.581Z,15.68
2023-05-25T05:14:50.769Z,0.20
2023-05-25T05:17:17.320Z,10.93
2023-05-25T05:19:46.591Z,1.50
2023-05-25T05:22:15.691Z,2.72
2023-05-25T05:24:43.044Z,1.45
2023-05-25T05:27:14.741Z,1.20
2023-05-25T05:29:46.231Z,3.03
2023-05-25T05:32:12.531Z,2.78
2023-05-25T05:34:38.874Z,5.20
2023-05-25T05:37:05.448Z,21.90
2023-05-25T05:39:33.878Z,18.58
2023-05-25T05:42:05.076Z,17.35
2023-05-25T05:44:34.620Z,20.15
2023-05-25T05:47:01.597Z,17.85
2023-05-25T05:49:34.675Z,20.13
2023-05-25T05:52:02.617Z,17.65
2023-05-25T05:54:28.970Z,22.05
2023-05-25T05:57:03.357Z,22.17
2023-05-25T05:59:29.730Z,21.88
2023-05-25T06:01:55.965Z,23.33
2023-05-25T06:04:27.059Z,12.02
2023-05-25T06:06:59.228Z,10.75
2023-05-25T06:09:31.845Z,11.80
2023-05-25T06:12:04.780Z,0.20
2023-05-25T06:14:31.219Z,5.70
2023-05-25T06:17:01.615Z,6.00
2023-05-25T06:19:30.814Z,11.48
2023-05-25T06:22:00.592Z,9.13
2023-05-25T06:24:31.245Z,14.75
2023-05-25T06:29:37.922Z,14.80
2023-05-25T06:32:13.072Z,0.65
2023-05-25T06:34:39.422Z,4.32
2023-05-25T06:37:08.939Z,14.05
2023-05-25T06:39:35.433Z,17.27
2023-05-25T06:42:10.323Z,14.23
2023-05-25T06:44:43.147Z,19.23
2023-05-25T06:47:10.480Z,14.00
2023-05-25T06:49:37.071Z,12.82
2023-05-25T06:52:12.973Z,13.07
2023-05-25T06:57:28.270Z,14.90
2023-05-25T07:00:03.820Z,0.40
2023-05-25T07:02:35.884Z,1.35
2023-05-25T07:05:06.820Z,9.43
2023-05-25T07:07:44.464Z,16.50
2023-05-25T07:10:16.226Z,19.17
2023-05-25T07:12:43.902Z,11.27
2023-05-25T07:15:15.534Z,10.52
2023-05-25T07:17:44.944Z,13.23
2023-05-25T07:20:15.337Z,12.40
2023-05-25T07:22:45.465Z,10.20
2023-05-25T07:25:11.971Z,22.30
2023-05-25T07:27:42.649Z,8.10
2023-05-25T07:30:13.040Z,4.88
2023-05-25T07:32:47.511Z,5.15
2023-05-25T07:35:17.716Z,10.20
2023-05-25T07:37:53.188Z,1.70
2023-05-25T07:40:19.486Z,6.40
2023-05-25T07:42:45.775Z,3.60
2023-05-25T07:45:12.436Z,4.68
2023-05-25T07:47:41.541Z,7.30
2023-05-25T07:50:18.868Z,7.72
2023-05-25T07:52:50.398Z,4.50
2023-05-25T07:55:18.265Z,4.97
2023-05-25T07:57:45.049Z,5.18
2023-05-25T08:00:28.877Z,6.75
2023-05-25T08:02:55.838Z,7.07
2023-05-25T08:05:28.840Z,7.13
2023-05-25T08:08:02.743Z,9.80
2023-05-25T08:10:36.291Z,12.18
2023-05-25T08:13:05.860Z,7.68
2023-05-25T08:15:34.783Z,12.95
2023-05-25T08:18:03.401Z,8.30
2023-05-25T08:20:30.365Z,6.57
2023-05-25T08:22:56.646Z,5.10
2023-05-25T08:25:22.898Z,5.53
2023-05-25T08:27:52.231Z,9.18
2023-05-25T08:30:21.207Z,8.10
2023-05-25T08:32:47.682Z,11.38
2023-05-25T08:35:14.389Z,9.93
2023-05-25T08:37:42.671Z,13.20
2023-05-25T08:40:15.612Z,12.18
2023-05-25T08:42:45.776Z,8.25
2023-05-25T08:45:22.571Z,7.70
2023-05-25T08:48:02.115Z,8.25
2023-05-25T08:50:30.708Z,6.55
2023-05-25T08:52:58.039Z,2.78
2023-05-25T08:55:31.655Z,3.72
2023-05-25T08:58:13.725Z,5.95
2023-05-25T09:00:47.277Z,6.00
2023-05-25T09:03:17.559Z,5.22
2023-05-25T09:05:46.769Z,7.50
2023-05-25T09:08:14.095Z,5.60
2023-05-25T09:10:43.773Z,8.90
2023-05-25T09:13:22.154Z,10.25
2023-05-25T09:15:50.266Z,12.13
2023-05-25T09:18:16.742Z,7.35
2023-05-25T09:20:47.307Z,8.48
2023-05-25T09:23:20.235Z,11.93
2023-05-25T09:25:47.971Z,6.22
2023-05-25T09:28:26.156Z,7.63
2023-05-25T09:30:54.675Z,5.75
2023-05-25T09:33:21.347Z,7.88
2023-05-25T09:35:48.324Z,9.73
2023-05-25T09:38:27.130Z,6.85
2023-05-25T09:40:58.652Z,8.23
2023-05-25T09:43:42.894Z,7.95
2023-05-25T09:46:11.665Z,5.97
2023-05-25T09:48:44.916Z,5.70
2023-05-25T09:51:18.938Z,9.45
2023-05-25T09:53:50.630Z,7.25
2023-05-25T09:56:26.756Z,10.48
2023-05-25T09:58:57.545Z,11.05
2023-05-25T10:01:30.885Z,7.45
2023-05-25T10:04:04.213Z,8.48
2023-05-25T10:06:40.233Z,6.90
2023-05-25T10:09:24.488Z,8.85
2023-05-25T10:11:51.766Z,11.63
2023-05-25T10:14:31.397Z,8.35
2023-05-25T10:17:13.390Z,9.23
2023-05-25T10:19:54.170Z,9.32
2023-05-25T10:22:41.037Z,9.27
2023-05-25T10:25:17.734Z,7.70
2023-05-25T10:27:52.222Z,9.18
2023-05-25T10:30:21.029Z,7.95
2023-05-25T10:32:47.970Z,10.93
2023-05-25T10:35:15.201Z,11.30
2023-05-25T10:37:45.364Z,6.40
2023-05-25T10:40:12.614Z,4.10
2023-05-25T10:42:41.593Z,0.20
2023-05-25T10:45:11.209Z,0.20
2023-05-25T10:47:44.215Z,0.10
2023-05-25T10:50:22.633Z,0.20
2023-05-25T10:53:03.758Z,0.20
2023-05-25T10:55:55.598Z,0.20
2023-05-25T10:58:27.295Z,0.20
2023-05-25T11:01:06.461Z,0.10
2023-05-25T11:03:45.639Z,0.20
2023-05-25T11:06:13.612Z,0.20
2023-05-25T11:09:03.884Z,0.20
2023-05-25T11:11:46.951Z,0.20
2023-05-25T11:14:30.126Z,0.10
2023-05-25T11:17:16.089Z,0.10
2023-05-25T11:19:50.364Z,0.10
2023-05-25T11:22:24.503Z,0.20
2023-05-25T11:24:52.072Z,0.20
2023-05-25T11:27:26.507Z,0.20
2023-05-25T11:29:54.034Z,0.10
2023-05-25T11:32:21.433Z,0.10
2023-05-25T11:34:49.907Z,0.20
2023-05-25T11:37:20.872Z,0.10
2023-05-25T11:39:48.770Z,0.20
2023-05-25T11:42:16.329Z,0.17
2023-05-25T11:44:47.353Z,0.20
2023-05-25T11:47:24.204Z,0.10
2023-05-25T11:49:50.907Z,2.50
2023-05-25T11:52:18.512Z,0.40
2023-05-25T11:54:48.054Z,2.53
2023-05-25T11:57:18.631Z,2.42
2023-05-25T12:00:00.474Z,0.20
2023-05-25T12:02:27.095Z,0.20
2023-05-25T12:04:58.623Z,0.20
2023-05-25T12:07:26.574Z,0.20
2023-05-25T12:10:07.583Z,0.20
2023-05-25T12:12:43.705Z,0.20
2023-05-25T12:15:12.464Z,0.20
2023-05-25T12:17:42.348Z,0.10
2023-05-25T12:20:10.705Z,0.30
2023-05-25T12:22:41.552Z,0.10
2023-05-25T12:25:10.192Z,2.72
2023-05-25T12:27:36.944Z,0.20
2023-05-25T12:30:05.234Z,0.20
2023-05-25T12:32:32.062Z,0.20
2023-05-25T12:35:07.821Z,0.20
2023-05-25T12:37:37.251Z,0.90
2023-05-25T12:40:16.944Z,2.30
2023-05-25T12:42:43.538Z,0.68
2023-05-25T12:45:11.147Z,0.10
2023-05-25T12:47:38.010Z,0.13
2023-05-25T12:50:12.929Z,0.20
2023-05-25T12:52:43.989Z,0.20
2023-05-25T12:55:27.299Z,0.20
2023-05-25T12:57:55.690Z,0.20
2023-05-25T13:00:42.285Z,0.20
2023-05-25T13:05:39.454Z,0.20
2023-05-25T13:08:06.553Z,0.35
2023-05-25T13:10:35.990Z,1.85
2023-05-25T13:13:03.810Z,0.80
2023-05-25T13:15:30.170Z,0.20
2023-05-25T13:18:02.218Z,0.10
2023-05-25T13:20:35.612Z,0.10
2023-05-25T13:23:14.892Z,0.20
2023-05-25T13:25:44.866Z,0.20
2023-05-25T13:28:11.215Z,0.20
2023-05-25T13:30:37.584Z,0.20
2023-05-25T13:33:04.382Z,5.32
2023-05-25T13:35:57.930Z,5.85
2023-05-25T13:38:26.590Z,1.65
2023-05-25T13:40:53.165Z,2.13
2023-05-25T13:43:23.722Z,3.17
2023-05-25T13:45:51.598Z,8.32
2023-05-25T13:48:19.011Z,7.22
2023-05-25T13:50:46.220Z,3.90
2023-05-25T13:53:28.804Z,6.60
2023-05-25T13:55:55.759Z,1.45
2023-05-25T13:58:25.532Z,4.88
2023-05-25T14:00:54.743Z,1.88
2023-05-25T14:03:21.631Z,4.15
2023-05-25T14:05:52.554Z,7.10
2023-05-25T14:08:22.113Z,7.88
2023-05-25T14:10:49.046Z,7.85
2023-05-25T14:13:17.276Z,8.45
2023-05-25T14:15:44.653Z,10.85
2023-05-25T14:18:12.171Z,9.30
2023-05-25T14:20:45.530Z,5.47
2023-05-25T14:23:19.768Z,7.93
2023-05-25T14:25:50.666Z,7.63
2023-05-25T14:28:21.242Z,10.02
2023-05-25T14:30:47.848Z,7.00
2023-05-25T14:33:16.197Z,13.70
2023-05-25T14:35:46.070Z,9.60
2023-05-25T14:38:13.669Z,7.18
2023-05-25T14:40:49.115Z,7.43
2023-05-25T14:43:15.546Z,11.00
2023-05-25T14:45:45.700Z,6.10
2023-05-25T14:48:26.980Z,9.43
2023-05-25T14:50:59.206Z,12.85
2023-05-25T14:53:28.161Z,3.70
2023-05-25T14:55:57.755Z,0.10
2023-05-25T14:58:30.366Z,20.38
2023-05-25T15:01:00.254Z,0.80
2023-05-25T15:03:33.258Z,5.03
2023-05-25T15:06:00.002Z,4.15
2023-05-25T15:08:38.116Z,4.88
2023-05-25T15:11:12.897Z,7.05
2023-05-25T15:13:43.967Z,5.78
2023-05-25T15:16:51.113Z,5.93
2023-05-25T15:19:20.971Z,6.85
2023-05-25T15:21:50.523Z,7.90
2023-05-25T15:24:25.550Z,5.43
2023-05-25T15:26:52.201Z,5.18
2023-05-25T15:29:32.799Z,5.32
2023-05-25T15:32:02.120Z,7.55
2023-05-25T15:34:31.059Z,8.63
2023-05-25T15:37:00.658Z,8.57
2023-05-25T15:39:29.606Z,4.45
2023-05-25T15:41:56.091Z,5.30
2023-05-25T15:44:22.475Z,5.53
2023-05-25T15:46:54.461Z,4.63
2023-05-25T15:49:24.181Z,5.63
2023-05-25T15:51:52.970Z,7.18
2023-05-25T15:54:20.954Z,6.72
2023-05-25T15:56:47.304Z,6.07
2023-05-25T15:59:13.771Z,7.50
2023-05-25T16:01:46.443Z,6.03
2023-05-25T16:04:15.089Z,9.07
2023-05-25T16:06:50.093Z,6.57
2023-05-25T16:09:16.881Z,5.88
2023-05-25T16:11:43.276Z,5.95
2023-05-25T16:14:15.511Z,6.32
2023-05-25T16:16:46.880Z,6.95
2023-05-25T16:19:14.308Z,10.07
2023-05-25T16:21:43.062Z,5.00
2023-05-25T16:24:09.442Z,6.82
2023-05-25T16:26:38.032Z,5.43
2023-05-25T16:29:04.432Z,6.10
2023-05-25T16:31:30.824Z,7.47
2023-05-25T16:33:57.030Z,5.45
2023-05-25T16:36:27.581Z,7.85
2023-05-25T16:38:54.013Z,9.52
2023-05-25T16:41:20.532Z,4.15
2023-05-25T16:43:46.771Z,5.38
2023-05-25T16:46:16.148Z,4.88
2023-05-25T16:48:42.674Z,6.70
2023-05-25T16:51:16.162Z,13.63
2023-05-25T16:53:43.353Z,5.88
2023-05-25T16:56:09.870Z,6.32
2023-05-25T16:58:38.800Z,6.25
2023-05-25T17:01:09.706Z,5.47
2023-05-25T17:03:54.369Z,6.20
2023-05-25T17:06:21.236Z,8.95
2023-05-25T17:08:47.710Z,8.30
2023-05-25T17:11:14.141Z,8.48
2023-05-25T17:13:57.212Z,6.47
2023-05-25T17:16:23.530Z,6.60
2023-05-25T17:18:52.398Z,8.45
2023-05-25T17:21:19.986Z,5.93
2023-05-25T17:23:47.728Z,8.40
2023-05-25T17:26:16.703Z,11.02
2023-05-25T17:28:43.445Z,8.40
2023-05-25T17:31:09.754Z,9.68
2023-05-25T17:33:37.911Z,5.28
2023-05-25T17:36:05.862Z,7.20
2023-05-25T17:38:34.609Z,6.55
2023-05-25T17:41:07.632Z,5.53
2023-05-25T17:43:37.242Z,7.00
2023-05-25T17:46:03.638Z,6.60
2023-05-25T17:48:33.794Z,5.88
2023-05-25T17:51:00.297Z,7.72
2023-05-25T17:53:32.599Z,10.93
2023-05-25T17:56:02.327Z,8.43
2023-05-25T17:58:34.907Z,6.72
2023-05-25T18:01:05.393Z,7.75
2023-05-25T18:03:35.238Z,8.60
2023-05-25T18:06:07.485Z,10.38
2023-05-25T18:08:34.241Z,7.75
2023-05-25T18:11:00.637Z,4.35
2023-05-25T18:13:27.018Z,3.47
2023-05-25T18:15:59.379Z,6.70
2023-05-25T18:18:30.407Z,5.15
2023-05-25T18:20:56.882Z,8.35
2023-05-25T18:23:23.680Z,4.53
2023-05-25T18:25:50.276Z,7.40
2023-05-25T18:28:22.781Z,7.45
2023-05-25T18:30:49.229Z,6.88
2023-05-25T18:33:18.499Z,5.35
2023-05-25T18:35:44.953Z,10.65
2023-05-25T18:38:14.644Z,6.78
2023-05-25T18:40:43.356Z,9.30
2023-05-25T18:43:12.941Z,9.50
2023-05-25T18:45:42.139Z,9.02
2023-05-25T18:48:09.650Z,10.45
2023-05-25T18:50:37.388Z,5.25
2023-05-25T18:53:13.846Z,7.97
2023-05-25T18:55:43.074Z,6.40
2023-05-25T18:58:09.586Z,6.55
2023-05-25T19:00:35.991Z,7.82
2023-05-25T19:03:02.529Z,6.78
2023-05-25T19:05:28.907Z,7.95
2023-05-25T19:07:59.579Z,4.25
2023-05-25T19:10:29.611Z,7.40
2023-05-25T19:13:07.137Z,5.55
2023-05-25T19:15:33.368Z,6.07
2023-05-25T19:17:59.570Z,8.23
2023-05-25T19:20:27.851Z,7.78
2023-05-25T19:22:54.364Z,6.00
2023-05-25T19:25:20.732Z,5.25
2023-05-25T19:27:48.719Z,6.13
2023-05-25T19:30:15.305Z,9.32
2023-05-25T19:32:41.889Z,5.85
2023-05-25T19:35:12.253Z,6.10
2023-05-25T19:37:38.521Z,6.68
2023-05-25T19:40:08.234Z,7.18
2023-05-25T19:42:35.319Z,6.88
2023-05-25T19:45:01.745Z,6.70
2023-05-25T19:47:28.002Z,6.97
2023-05-25T19:49:56.787Z,8.55
2023-05-25T19:52:28.378Z,5.75
2023-05-25T19:54:54.859Z,9.10
2023-05-25T19:57:21.455Z,8.88
2023-05-25T19:59:49.760Z,7.28
2023-05-25T20:02:16.721Z,8.90
2023-05-25T20:04:43.249Z,8.05
2023-05-25T20:07:12.602Z,5.65
2023-05-25T20:09:39.106Z,6.93
2023-05-25T20:12:08.533Z,7.65
2023-05-25T20:14:34.952Z,10.35
2023-05-25T20:17:04.237Z,6.20
2023-05-25T20:19:30.589Z,5.25
2023-05-25T20:22:02.004Z,8.68
2023-05-25T20:24:28.283Z,7.47
2023-05-25T20:26:57.266Z,8.02
2023-05-25T20:29:23.914Z,7.93
2023-05-25T20:31:52.537Z,13.43
2023-05-25T20:34:19.779Z,6.03
2023-05-25T20:36:46.454Z,8.05
2023-05-25T20:39:16.013Z,7.07
2023-05-25T20:41:48.610Z,9.98
2023-05-25T20:44:17.679Z,9.18
2023-05-25T20:46:43.902Z,11.15
2023-05-25T20:49:10.388Z,9.15
2023-05-25T20:51:36.763Z,9.65
2023-05-25T20:54:03.149Z,10.38
2023-05-25T20:56:34.443Z,11.57
2023-05-25T20:59:00.940Z,9.60
2023-05-25T21:01:29.104Z,16.85
2023-05-25T21:03:58.254Z,12.07
2023-05-25T21:06:24.658Z,11.52
2023-05-25T21:08:52.612Z,9.25
2023-05-25T21:11:23.440Z,15.20
2023-05-25T21:13:49.635Z,12.27
2023-05-25T21:16:16.065Z,10.27
2023-05-25T21:18:44.918Z,8.10
2023-05-25T21:21:11.319Z,11.40
2023-05-25T21:23:41.315Z,11.43
2023-05-25T21:26:07.733Z,15.98
2023-05-25T21:28:34.372Z,8.90
2023-05-25T21:31:00.772Z,10.63
2023-05-25T21:33:31.577Z,13.00
2023-05-25T21:35:57.918Z,12.93
2023-05-25T21:38:27.734Z,12.13
2023-05-25T21:40:56.307Z,15.45
2023-05-25T21:43:22.769Z,11.43
2023-05-25T21:45:49.245Z,16.65
2023-05-25T21:48:16.577Z,15.68
2023-05-25T21:50:43.383Z,14.05
2023-05-25T21:53:13.052Z,12.27
2023-05-25T21:55:42.328Z,15.45
2023-05-25T21:58:11.931Z,12.98
2023-05-25T22:00:38.661Z,11.20
2023-05-25T22:03:07.238Z,13.95
2023-05-25T22:05:36.544Z,16.17
2023-05-25T22:08:06.364Z,11.63
2023-05-25T22:10:38.460Z,16.38
2023-05-25T22:13:08.716Z,15.15
2023-05-25T22:15:50.239Z,15.00
2023-05-25T22:18:16.727Z,13.32
2023-05-25T22:20:48.835Z,13.43
2023-05-25T22:23:18.846Z,19.02
2023-05-25T22:25:48.245Z,10.35
2023-05-25T22:28:18.624Z,14.60
2023-05-25T22:30:45.235Z,11.75
2023-05-25T22:33:12.165Z,14.00
2023-05-25T22:35:41.698Z,12.48
2023-05-25T22:38:10.069Z,13.55
2023-05-25T22:40:36.633Z,13.50
2023-05-25T22:43:03.215Z,11.05
2023-05-25T22:45:29.697Z,10.00
2023-05-25T22:47:56.543Z,15.63
2023-05-25T22:50:23.943Z,13.68
2023-05-25T22:52:50.252Z,15.38
2023-05-25T22:55:19.644Z,12.45
2023-05-25T22:57:46.776Z,14.40
2023-05-25T23:00:13.730Z,17.65
2023-05-25T23:02:40.375Z,13.27
2023-05-25T23:07:39.529Z,16.90
2023-05-25T23:10:07.643Z,21.02
2023-05-25T23:12:33.943Z,21.75
2023-05-25T23:15:06.862Z,17.48
2023-05-25T23:17:36.317Z,14.27
2023-05-25T23:20:12.937Z,20.75
2023-05-25T23:22:39.428Z,18.10
2023-05-25T23:25:06.475Z,20.25
2023-05-25T23:27:33.315Z,13.57
2023-05-25T23:29:59.750Z,22.27
2023-05-25T23:32:26.240Z,13.98
2023-05-25T23:34:56.684Z,17.63
2023-05-25T23:37:23.216Z,17.70
2023-05-25T23:39:49.800Z,15.00
2023-05-25T23:42:17.903Z,17.13
2023-05-25T23:44:44.305Z,15.48
2023-05-25T23:47:13.773Z,16.80
2023-05-25T23:49:40.165Z,11.85
2023-05-25T23:52:08.611Z,17.35
2023-05-25T23:54:37.814Z,15.10
2023-05-25T23:57:07.527Z,19.88
2023-05-25T23:59:34.128Z,13.05
